Time;durP1;ratioP1;P1;durP2;ratioP2;P2;SDS_P1;SDS_P2;PMS_P1;PMS_P2;Temp;Humidity;BMP_temperature;BMP_pressure;BME280_temperature;BME280_humidity;BME280_pressure;Samples;Min_cycle;Max_cycle;Signal;HPM_P1;HPM_P2
2023/08/10 00:01:11;;;;;;;5.60;3.30;;;;;;;12.66;100.00;100490.69;5026025;28;20308;-67
2023/08/10 00:03:36;;;;;;;6.13;3.57;;;;;;;12.69;100.00;100497.44;5034062;28;20186;-66
2023/08/10 00:06:02;;;;;;;5.57;3.23;;;;;;;12.68;100.00;100493.22;5030742;28;20181;-67
2023/08/10 00:08:27;;;;;;;3.20;2.90;;;;;;;12.60;100.00;100498.78;5031598;28;20230;-67
2023/08/10 00:10:52;;;;;;;3.60;3.30;;;;;;;12.53;100.00;100500.91;5027661;28;20252;-67
2023/08/10 00:13:18;;;;;;;4.13;3.50;;;;;;;12.47;100.00;100497.84;5039462;28;20185;-67
2023/08/10 00:15:43;;;;;;;4.00;3.20;;;;;;;12.46;100.00;100504.72;5030413;28;20229;-67
2023/08/10 00:18:09;;;;;;;4.90;3.53;;;;;;;12.48;100.00;100497.75;5030344;28;20516;-67
2023/08/10 00:20:35;;;;;;;5.00;3.50;;;;;;;12.48;100.00;100491.75;5024594;28;20229;-67
2023/08/10 00:23:01;;;;;;;4.60;3.30;;;;;;;12.48;100.00;100492.59;5029159;28;20692;-67
2023/08/10 00:25:26;;;;;;;3.40;3.10;;;;;;;12.49;100.00;100507.16;5030748;28;20186;-67
2023/08/10 00:27:53;;;;;;;10.63;3.90;;;;;;;12.50;100.00;100502.81;5031186;28;20186;-67
2023/08/10 00:30:18;;;;;;;4.43;3.30;;;;;;;12.42;100.00;100498.91;5021388;28;20626;-67
2023/08/10 00:32:43;;;;;;;4.53;3.83;;;;;;;12.30;100.00;100498.78;5031478;28;20181;-67
2023/08/10 00:35:09;;;;;;;7.13;3.80;;;;;;;12.35;100.00;100499.34;5030784;28;20193;-67
2023/08/10 00:37:34;;;;;;;4.17;3.30;;;;;;;12.32;100.00;100499.53;5031016;28;20209;-67
2023/08/10 00:39:59;;;;;;;8.57;3.97;;;;;;;12.34;100.00;100502.84;5029471;28;20181;-67
2023/08/10 00:42:25;;;;;;;5.17;3.77;;;;;;;12.36;100.00;100496.66;5035727;28;20253;-67
2023/08/10 00:44:50;;;;;;;3.83;3.43;;;;;;;12.36;100.00;100498.44;5030492;28;20190;-67
2023/08/10 00:47:15;;;;;;;4.83;3.60;;;;;;;12.33;100.00;100501.16;5030881;28;20182;-67
2023/08/10 00:49:41;;;;;;;4.90;3.30;;;;;;;12.29;100.00;100503.09;5030983;28;20210;-67
2023/08/10 00:52:06;;;;;;;7.40;3.47;;;;;;;12.26;100.00;100514.41;5035318;28;20274;-67
2023/08/10 00:54:32;;;;;;;5.60;3.10;;;;;;;12.22;100.00;100514.69;5030549;28;20554;-67
2023/08/10 00:56:58;;;;;;;4.33;3.00;;;;;;;12.15;100.00;100519.31;5031058;28;20204;-67
2023/08/10 00:59:27;;;;;;;3.73;3.00;;;;;;;12.11;100.00;100504.94;5027585;28;20181;-67
2023/08/10 01:01:52;;;;;;;4.37;2.93;;;;;;;12.08;100.00;100515.41;5031948;28;20312;-66
2023/08/10 01:04:17;;;;;;;3.80;3.40;;;;;;;12.08;100.00;100521.41;5020037;28;20639;-66
2023/08/10 01:07:00;;;;;;;5.37;3.47;;;;;;;12.05;100.00;100524.16;5031102;28;20182;-65
2023/08/10 01:09:31;;;;;;;6.27;3.43;;;;;;;12.04;100.00;100525.06;5018550;28;20180;-66
2023/08/10 01:12:05;;;;;;;4.00;3.60;;;;;;;11.94;100.00;100529.88;5034774;28;20240;-66
2023/08/10 01:14:51;;;;;;;4.10;3.70;;;;;;;12.01;100.00;100538.13;5030756;28;20270;-67
2023/08/10 01:17:26;;;;;;;5.43;3.53;;;;;;;12.11;100.00;100533.31;5028950;28;20218;-66
2023/08/10 01:19:53;;;;;;;4.17;3.77;;;;;;;12.05;100.00;100529.31;5028090;28;20224;-66
2023/08/10 01:22:44;;;;;;;4.37;3.20;;;;;;;11.96;100.00;100519.50;5040064;28;20213;-66
2023/08/10 01:25:09;;;;;;;3.03;2.83;;;;;;;12.18;100.00;100511.44;5034570;28;20190;-66
2023/08/10 01:27:36;;;;;;;5.00;3.27;;;;;;;12.31;100.00;100519.31;5034597;28;20182;-66
2023/08/10 01:30:03;;;;;;;4.77;3.40;;;;;;;12.15;100.00;100513.34;5032770;28;20190;-66
2023/08/10 01:32:30;;;;;;;3.83;3.47;;;;;;;12.25;100.00;100515.34;5009900;28;20233;-66
2023/08/10 01:34:56;;;;;;;7.60;3.03;;;;;;;12.36;100.00;100519.06;5034115;28;20621;-66
2023/08/10 01:37:21;;;;;;;4.07;3.73;;;;;;;12.44;100.00;100522.06;5032910;28;20692;-66
2023/08/10 01:39:47;;;;;;;5.10;3.40;;;;;;;12.50;100.00;100519.16;5033093;28;20295;-66
2023/08/10 01:42:13;;;;;;;7.20;3.13;;;;;;;12.62;100.00;100522.78;5011038;28;20625;-66
2023/08/10 01:44:38;;;;;;;5.50;3.47;;;;;;;12.70;100.00;100527.50;5033858;28;20658;-66
2023/08/10 01:47:17;;;;;;;6.37;3.40;;;;;;;12.69;100.00;100526.66;5033840;28;20533;-66
2023/08/10 01:49:44;;;;;;;3.10;2.80;;;;;;;12.74;100.00;100527.25;5034269;28;20381;-65
2023/08/10 01:52:11;;;;;;;5.90;3.40;;;;;;;12.68;100.00;100530.16;5038795;28;20579;-66
2023/08/10 01:54:37;;;;;;;6.73;3.63;;;;;;;12.72;100.00;100536.81;5020903;28;20268;-66
2023/08/10 01:57:02;;;;;;;5.53;3.33;;;;;;;12.72;100.00;100541.97;5034070;28;20204;-67
2023/08/10 01:59:28;;;;;;;5.50;3.47;;;;;;;12.87;100.00;100539.44;5018757;28;20183;-67
2023/08/10 02:01:54;;;;;;;4.07;3.03;;;;;;;12.92;100.00;100545.19;5032017;28;20221;-67
2023/08/10 02:04:19;;;;;;;3.90;2.77;;;;;;;12.90;100.00;100531.53;5023255;28;20678;-67
2023/08/10 02:06:45;;;;;;;2.83;2.57;;;;;;;12.96;100.00;100536.34;5034019;28;20202;-67
2023/08/10 02:09:10;;;;;;;6.20;2.80;;;;;;;12.94;100.00;100542.50;5033903;28;20224;-67
2023/08/10 02:11:35;;;;;;;3.87;3.07;;;;;;;12.86;100.00;100533.47;5025043;28;20232;-67
2023/08/10 02:14:00;;;;;;;3.77;2.80;;;;;;;12.87;100.00;100536.88;5036464;28;20182;-67
2023/08/10 02:16:26;;;;;;;3.87;3.20;;;;;;;12.99;100.00;100535.34;5033526;28;20230;-67
2023/08/10 02:18:51;;;;;;;4.27;2.90;;;;;;;13.04;100.00;100535.91;5033801;28;20197;-67
2023/08/10 02:21:17;;;;;;;5.47;3.10;;;;;;;13.10;100.00;100532.97;5032884;28;20287;-67
2023/08/10 02:23:42;;;;;;;3.33;2.73;;;;;;;13.17;100.00;100529.13;5031671;28;20193;-66
2023/08/10 02:26:07;;;;;;;5.50;3.20;;;;;;;13.16;100.00;100527.44;5032431;28;20257;-66
2023/08/10 02:28:32;;;;;;;2.90;2.70;;;;;;;13.18;100.00;100533.31;5033371;28;20544;-66
2023/08/10 02:30:59;;;;;;;3.63;2.90;;;;;;;13.13;100.00;100529.38;5025489;28;20324;-66
2023/08/10 02:33:24;;;;;;;3.27;2.97;;;;;;;13.10;100.00;100524.38;5041447;28;20638;-66
2023/08/10 02:35:49;;;;;;;3.60;2.80;;;;;;;13.08;100.00;100517.56;5032912;28;20209;-66
2023/08/10 02:38:15;;;;;;;4.87;3.10;;;;;;;13.12;100.00;100517.38;5033533;28;20174;-66
2023/08/10 02:40:40;;;;;;;3.03;2.83;;;;;;;13.03;100.00;100518.75;5028243;28;20233;-66
2023/08/10 02:43:05;;;;;;;3.47;3.17;;;;;;;13.10;100.00;100520.06;5032657;28;20582;-66
2023/08/10 02:45:31;;;;;;;3.53;3.23;;;;;;;13.02;100.00;100523.09;5033030;28;20205;-66
2023/08/10 02:47:56;;;;;;;4.73;2.83;;;;;;;12.98;100.00;100520.75;5033085;28;20182;-66
2023/08/10 02:50:22;;;;;;;2.90;2.70;;;;;;;13.01;100.00;100521.41;5025788;28;20292;-66
2023/08/10 02:52:47;;;;;;;4.57;3.20;;;;;;;13.09;100.00;100528.72;5045482;28;20182;-66
2023/08/10 02:55:12;;;;;;;4.43;3.00;;;;;;;13.05;100.00;100520.31;5031286;28;20320;-66
2023/08/10 02:57:38;;;;;;;4.80;3.30;;;;;;;13.00;100.00;100532.66;5032664;28;20194;-66
2023/08/10 03:00:06;;;;;;;4.23;3.10;;;;;;;13.03;100.00;100527.31;5025192;28;20178;-67
2023/08/10 03:02:32;;;;;;;4.77;3.40;;;;;;;12.99;100.00;100530.19;5047561;28;20556;-65
2023/08/10 03:04:57;;;;;;;5.33;2.83;;;;;;;12.89;100.00;100535.84;5032585;28;20186;-66
2023/08/10 03:07:22;;;;;;;3.40;3.10;;;;;;;12.90;100.00;100536.72;5032679;28;20226;-66
2023/08/10 03:09:47;;;;;;;3.53;3.23;;;;;;;12.85;100.00;100529.22;5032768;28;20178;-67
2023/08/10 03:12:13;;;;;;;4.10;3.70;;;;;;;12.83;100.00;100525.06;5033693;28;20659;-67
2023/08/10 03:14:38;;;;;;;3.70;3.40;;;;;;;12.81;100.00;100529.47;5032170;28;20195;-67
2023/08/10 03:17:04;;;;;;;5.50;3.97;;;;;;;12.79;100.00;100520.97;5032603;28;20236;-67
2023/08/10 03:19:30;;;;;;;3.20;3.00;;;;;;;12.73;100.00;100530.72;5032428;28;20707;-67
2023/08/10 03:21:55;;;;;;;4.23;3.83;;;;;;;12.61;100.00;100528.03;5036335;28;20319;-67
2023/08/10 03:24:20;;;;;;;4.77;4.37;;;;;;;12.41;100.00;100519.66;5030762;28;20186;-66
2023/08/10 03:26:46;;;;;;;4.67;4.23;;;;;;;12.43;100.00;100530.72;5032220;28;20194;-66
2023/08/10 03:29:11;;;;;;;4.90;4.03;;;;;;;12.39;100.00;100536.94;5032305;28;20720;-66
2023/08/10 03:31:36;;;;;;;4.83;4.23;;;;;;;12.42;100.00;100532.44;5013311;28;20646;-66
2023/08/10 03:34:02;;;;;;;6.83;4.27;;;;;;;12.51;100.00;100538.03;5035398;28;20194;-66
2023/08/10 03:36:27;;;;;;;5.67;4.40;;;;;;;12.46;100.00;100533.13;5031802;28;20210;-66
2023/08/10 03:38:52;;;;;;;4.97;4.47;;;;;;;12.57;100.00;100535.94;5032020;28;20205;-67
2023/08/10 03:41:17;;;;;;;4.63;4.20;;;;;;;12.62;100.00;100540.00;5031133;28;20229;-66
2023/08/10 03:43:43;;;;;;;5.37;4.50;;;;;;;12.64;100.00;100541.59;5030388;28;20599;-67
2023/08/10 03:46:08;;;;;;;5.00;3.90;;;;;;;12.63;100.00;100539.06;5031378;28;20182;-67
2023/08/10 03:48:34;;;;;;;3.77;3.47;;;;;;;12.70;100.00;100535.22;5032036;28;20190;-66
2023/08/10 03:51:00;;;;;;;6.50;4.20;;;;;;;12.66;100.00;100542.31;5028773;28;20224;-66
2023/08/10 03:53:25;;;;;;;4.93;4.17;;;;;;;12.74;100.00;100552.22;5039531;28;20182;-66
2023/08/10 03:55:51;;;;;;;7.20;4.07;;;;;;;12.75;100.00;100553.88;5030794;28;20571;-66
2023/08/10 03:58:16;;;;;;;5.37;4.60;;;;;;;12.68;100.00;100545.66;5031723;28;20182;-67
2023/08/10 04:00:44;;;;;;;6.47;4.50;;;;;;;12.71;100.00;100553.25;5026042;28;20229;-66
2023/08/10 04:03:11;;;;;;;4.33;3.87;;;;;;;12.74;100.00;100547.06;5040209;28;20273;-67
2023/08/10 04:05:37;;;;;;;5.30;3.93;;;;;;;12.79;100.00;100546.78;5030830;28;20635;-66
2023/08/10 04:08:03;;;;;;;7.07;4.10;;;;;;;12.81;100.00;100547.53;5030424;28;20218;-66
2023/08/10 04:10:29;;;;;;;5.10;4.20;;;;;;;12.74;100.00;100552.22;5019346;28;20304;-66
2023/08/10 04:12:55;;;;;;;8.03;4.70;;;;;;;12.94;100.00;100550.25;5030762;28;20186;-66
2023/08/10 04:15:20;;;;;;;4.47;3.93;;;;;;;13.04;100.00;100557.38;5030800;28;20225;-66
2023/08/10 04:17:45;;;;;;;7.90;4.27;;;;;;;13.12;100.00;100564.69;5021981;28;20218;-66
2023/08/10 04:20:11;;;;;;;4.87;3.90;;;;;;;13.18;100.00;100560.94;5018738;28;20551;-67
2023/08/10 04:22:36;;;;;;;4.47;4.07;;;;;;;13.29;100.00;100555.97;5045262;28;20214;-66
2023/08/10 04:25:03;;;;;;;5.23;4.20;;;;;;;13.37;100.00;100565.84;5031172;28;20307;-67
2023/08/10 04:27:29;;;;;;;4.63;3.70;;;;;;;13.40;100.00;100563.94;5031265;28;20185;-66
2023/08/10 04:29:54;;;;;;;6.17;3.83;;;;;;;13.53;100.00;100569.22;5031549;28;20717;-66
2023/08/10 04:32:19;;;;;;;4.70;3.83;;;;;;;13.64;100.00;100565.16;5035726;28;20236;-66
2023/08/10 04:34:45;;;;;;;4.87;3.60;;;;;;;13.64;100.00;100565.97;5030998;28;20248;-66
2023/08/10 04:37:11;;;;;;;6.60;3.80;;;;;;;13.70;100.00;100560.44;5031106;28;20246;-66
2023/08/10 04:39:36;;;;;;;6.00;3.77;;;;;;;13.79;100.00;100569.41;5031429;28;20182;-66
2023/08/10 04:42:02;;;;;;;3.67;3.33;;;;;;;13.87;100.00;100559.44;5035821;28;20233;-66
2023/08/10 04:44:28;;;;;;;4.00;3.60;;;;;;;13.93;100.00;100566.00;5031241;28;20190;-66
2023/08/10 04:46:53;;;;;;;4.33;3.30;;;;;;;13.98;100.00;100568.28;5031297;28;20178;-66
2023/08/10 04:49:18;;;;;;;3.50;3.20;;;;;;;13.97;100.00;100564.88;5033445;28;20181;-66
2023/08/10 04:51:43;;;;;;;5.53;3.77;;;;;;;14.08;100.00;100556.44;5037239;28;20664;-66
2023/08/10 04:54:09;;;;;;;4.10;3.43;;;;;;;14.16;100.00;100563.72;5033303;28;20178;-66
2023/08/10 04:56:35;;;;;;;4.63;3.67;;;;;;;14.19;100.00;100566.13;5034852;28;20194;-67
2023/08/10 04:59:02;;;;;;;3.93;3.53;;;;;;;14.36;100.00;100575.41;5034909;28;20182;-66
2023/08/10 05:01:27;;;;;;;5.20;2.93;;;;;;;14.23;100.00;100570.19;5035352;28;20228;-66
2023/08/10 05:03:54;;;;;;;5.23;3.20;;;;;;;14.23;100.00;100577.09;5038454;28;20243;-66
2023/08/10 05:06:19;;;;;;;5.20;3.37;;;;;;;14.45;100.00;100584.34;5034323;28;20170;-67
2023/08/10 05:08:44;;;;;;;4.57;3.10;;;;;;;14.68;100.00;100578.56;5034905;28;20208;-65
2023/08/10 05:11:09;;;;;;;4.43;3.10;;;;;;;14.71;100.00;100576.72;5024164;28;20225;-66
2023/08/10 05:13:35;;;;;;;4.07;2.93;;;;;;;14.77;100.00;100582.34;5034504;28;20178;-65
2023/08/10 05:16:01;;;;;;;7.57;3.17;;;;;;;14.87;100.00;100577.38;5034184;28;20229;-66
2023/08/10 05:18:27;;;;;;;5.77;3.20;;;;;;;14.79;100.00;100582.25;5034807;28;20228;-67
2023/08/10 05:20:52;;;;;;;5.67;3.27;;;;;;;14.85;100.00;100581.84;5031327;28;20245;-67
2023/08/10 05:23:17;;;;;;;2.93;2.73;;;;;;;14.76;100.00;100578.09;5043549;28;20571;-66
2023/08/10 05:25:43;;;;;;;24.80;19.07;;;;;;;14.92;100.00;100577.09;5034007;28;20364;-66
2023/08/10 05:28:08;;;;;;;4.30;3.70;;;;;;;15.03;100.00;100582.41;5034610;28;20185;-67
2023/08/10 05:30:34;;;;;;;3.17;2.80;;;;;;;15.25;100.00;100581.00;5028546;28;20726;-66
2023/08/10 05:32:59;;;;;;;6.27;3.23;;;;;;;15.34;100.00;100580.38;5045128;28;20181;-66
2023/08/10 05:35:24;;;;;;;5.93;3.30;;;;;;;15.48;100.00;100582.06;5034222;28;20570;-65
2023/08/10 05:37:50;;;;;;;5.17;3.33;;;;;;;15.69;100.00;100576.31;5033371;28;20198;-66
2023/08/10 05:40:15;;;;;;;4.70;3.13;;;;;;;15.85;100.00;100589.94;5024653;28;20232;-65
2023/08/10 05:42:42;;;;;;;4.20;3.53;;;;;;;16.07;100.00;100584.06;5046932;28;20538;-65
2023/08/10 05:45:20;;;;;;;3.03;2.83;;;;;;;16.24;100.00;100588.06;5034228;28;20312;-66
2023/08/10 05:47:47;;;;;;;5.23;3.13;;;;;;;16.34;100.00;100583.06;5034060;28;20261;-65
2023/08/10 05:50:13;;;;;;;5.30;3.00;;;;;;;16.63;100.00;100587.94;5025432;28;20206;-65
2023/08/10 05:52:39;;;;;;;4.10;3.10;;;;;;;16.91;100.00;100585.94;5044411;28;20209;-66
2023/08/10 05:55:04;;;;;;;3.23;2.77;;;;;;;17.02;100.00;100588.59;5032044;28;21419;-66
2023/08/10 05:57:30;;;;;;;6.70;3.27;;;;;;;17.43;100.00;100589.03;5034073;28;20198;-64
2023/08/10 05:59:55;;;;;;;6.27;3.67;;;;;;;17.82;100.00;100591.31;5031852;28;20186;-68
2023/08/10 06:02:21;;;;;;;3.70;3.20;;;;;;;18.02;100.00;100580.22;5036240;28;20279;-68
2023/08/10 06:04:46;;;;;;;3.83;3.13;;;;;;;18.61;100.00;100579.94;5032164;28;20268;-68
2023/08/10 06:07:12;;;;;;;2.93;2.63;;;;;;;18.91;100.00;100586.25;5032350;28;20182;-67
2023/08/10 06:09:37;;;;;;;4.50;3.13;;;;;;;19.16;100.00;100590.25;5033519;28;20268;-68
2023/08/10 06:12:03;;;;;;;7.07;2.40;;;;;;;19.28;100.00;100591.00;5025097;28;20228;-69
2023/08/10 06:14:28;;;;;;;3.57;2.80;;;;;;;19.42;100.00;100585.44;5025949;28;20186;-69
2023/08/10 06:16:54;;;;;;;3.60;2.57;;;;;;;19.61;100.00;100595.16;5033573;28;20218;-66
2023/08/10 06:19:19;;;;;;;5.03;2.50;;;;;;;20.18;100.00;100591.25;5033577;28;20605;-67
2023/08/10 06:21:44;;;;;;;4.17;2.50;;;;;;;19.98;100.00;100602.47;5033306;28;20229;-67
2023/08/10 06:24:10;;;;;;;4.33;2.47;;;;;;;19.98;100.00;100594.66;5022447;28;20182;-67
2023/08/10 06:26:36;;;;;;;5.53;2.13;;;;;;;20.12;100.00;100592.63;5033021;28;20189;-68
2023/08/10 06:29:02;;;;;;;2.37;2.10;;;;;;;19.89;100.00;100599.84;5021782;28;20258;-69
2023/08/10 06:31:28;;;;;;;3.00;2.50;;;;;;;19.91;100.00;100600.50;5030052;28;20229;-69
2023/08/10 06:33:53;;;;;;;4.93;2.70;;;;;;;20.20;100.00;100598.00;5032963;28;20182;-70
2023/08/10 06:36:18;;;;;;;8.87;2.97;;;;;;;20.06;100.00;100593.16;5032313;28;20241;-69
2023/08/10 06:38:44;;;;;;;8.07;2.50;;;;;;;19.92;100.00;100602.16;5021685;28;20175;-69
2023/08/10 06:41:09;;;;;;;5.40;3.07;;;;;;;19.91;100.00;100595.28;5025039;28;20570;-69
2023/08/10 06:43:34;;;;;;;5.03;2.60;;;;;;;19.74;100.00;100602.75;5033114;28;20597;-69
2023/08/10 06:46:00;;;;;;;4.53;2.63;;;;;;;20.12;100.00;100608.31;5009489;28;20181;-66
2023/08/10 06:48:25;;;;;;;2.30;2.10;;;;;;;20.25;100.00;100615.88;5029823;28;20272;-64
2023/08/10 06:50:51;;;;;;;5.17;2.60;;;;;;;20.22;100.00;100608.28;5024159;28;20232;-62
2023/08/10 06:53:16;;;;;;;4.43;2.33;;;;;;;19.80;100.00;100617.09;5041529;28;20220;-63
2023/08/10 06:55:42;;;;;;;5.30;2.63;;;;;;;19.51;100.00;100625.59;5030796;28;20189;-63
2023/08/10 06:58:08;;;;;;;7.27;2.97;;;;;;;19.69;100.00;100620.59;5032908;28;20697;-63
2023/08/10 07:00:34;;;;;;;6.40;2.47;;;;;;;19.46;100.00;100622.53;5026203;28;20225;-62
2023/08/10 07:02:59;;;;;;;5.40;2.77;;;;;;;19.70;100.00;100621.41;5038978;28;20587;-62
2023/08/10 07:05:27;;;;;;;7.83;2.80;;;;;;;19.59;100.00;100622.34;5015491;28;20186;-64
2023/08/10 07:07:52;;;;;;;5.23;2.63;;;;;;;19.67;100.00;100625.97;5025861;28;20177;-63
2023/08/10 07:10:18;;;;;;;6.63;3.47;;;;;;;19.88;100.00;100634.72;5024263;28;20182;-63
2023/08/10 07:12:43;;;;;;;3.50;2.53;;;;;;;19.75;100.00;100627.09;5040116;28;20656;-62
2023/08/10 07:15:09;;;;;;;2.53;2.33;;;;;;;20.02;100.00;100625.69;5031514;28;20253;-61
2023/08/10 07:17:35;;;;;;;5.07;3.10;;;;;;;20.23;100.00;100631.69;5032370;28;20206;-62
2023/08/10 07:20:03;;;;;;;4.37;2.93;;;;;;;20.11;100.00;100628.34;5032024;28;20269;-62
2023/08/10 07:22:28;;;;;;;4.47;2.77;;;;;;;20.45;100.00;100632.41;5034711;28;20210;-62
2023/08/10 07:24:54;;;;;;;3.30;2.63;;;;;;;20.74;100.00;100629.88;5031793;28;20182;-62
2023/08/10 07:27:19;;;;;;;9.57;3.00;;;;;;;20.36;100.00;100628.00;5023692;28;20277;-62
2023/08/10 07:29:45;;;;;;;7.97;2.90;;;;;;;19.81;100.00;100627.38;5032073;28;20170;-62
2023/08/10 07:32:11;;;;;;;5.30;2.90;;;;;;;20.12;100.00;100627.41;5032821;28;20256;-62
2023/08/10 07:34:36;;;;;;;6.97;3.00;;;;;;;20.85;100.00;100625.47;5024446;28;20194;-63
2023/08/10 07:37:02;;;;;;;5.90;3.07;;;;;;;20.94;100.00;100632.50;5031406;28;20202;-62
2023/08/10 07:39:27;;;;;;;6.07;2.57;;;;;;;21.37;100.00;100638.19;5032089;28;20652;-62
2023/08/10 07:41:52;;;;;;;6.13;2.73;;;;;;;21.50;100.00;100637.91;5029381;28;20291;-63
2023/08/10 07:44:18;;;;;;;6.17;2.73;;;;;;;21.01;100.00;100641.44;5029865;28;20229;-62
2023/08/10 07:46:46;;;;;;;5.23;3.10;;;;;;;21.00;100.00;100647.63;5031614;28;20197;-64
2023/08/10 07:49:12;;;;;;;5.70;2.70;;;;;;;21.17;100.00;100643.47;5019165;28;20538;-64
2023/08/10 07:51:37;;;;;;;5.50;2.67;;;;;;;21.45;100.00;100635.72;5028385;28;20233;-63
2023/08/10 07:54:02;;;;;;;7.30;2.77;;;;;;;21.54;100.00;100634.03;5033871;28;20560;-62
2023/08/10 07:56:28;;;;;;;8.00;3.10;;;;;;;22.08;98.57;100634.28;5023576;28;20210;-61
2023/08/10 07:58:53;;;;;;;7.87;3.00;;;;;;;22.59;96.56;100639.06;5023621;28;20193;-62
2023/08/10 08:01:18;;;;;;;4.97;3.13;;;;;;;23.22;94.52;100635.56;5026889;28;20305;-62
2023/08/10 08:03:43;;;;;;;4.57;2.60;;;;;;;23.36;91.10;100642.84;5033382;28;20720;-63
2023/08/10 08:06:09;;;;;;;6.07;2.67;;;;;;;22.40;96.61;100643.47;5028682;28;20179;-63
2023/08/10 08:08:34;;;;;;;8.13;3.00;;;;;;;23.27;91.80;100638.53;5029515;28;20208;-64
2023/08/10 08:10:59;;;;;;;3.30;2.65;;;;;;;22.48;95.12;100648.81;5025868;28;20671;-63
2023/08/10 08:13:24;;;;;;;4.15;3.00;;;;;;;23.45;91.22;100635.03;5034872;28;20183;-63
2023/08/10 08:15:50;;;;;;;5.07;3.05;;;;;;;23.98;87.02;100634.00;5031086;28;20217;-64
2023/08/10 08:18:40;;;;;;;6.07;3.53;;;;;;;24.72;79.55;100635.16;5031334;28;20209;-65
2023/08/10 08:21:05;;;;;;;7.88;3.05;;;;;;;26.17;71.77;100645.78;5024901;28;20281;-64
2023/08/10 08:23:31;;;;;;;12.43;3.28;;;;;;;27.11;60.17;100638.69;5020874;28;20604;-63
2023/08/10 08:25:56;;;;;;;5.78;3.00;;;;;;;28.41;51.61;100636.53;5030459;28;20190;-64
2023/08/10 08:28:22;;;;;;;6.13;2.97;;;;;;;28.84;45.98;100639.19;5027805;28;20222;-65
2023/08/10 08:30:49;;;;;;;6.53;3.42;;;;;;;29.33;46.81;100640.16;5009964;28;20252;-64
2023/08/10 08:33:14;;;;;;;4.97;3.25;;;;;;;28.87;46.92;100645.91;5030360;28;20181;-64
2023/08/10 08:35:43;;;;;;;3.70;2.83;;;;;;;29.33;45.03;100642.81;5017513;28;20182;-64
2023/08/10 08:38:09;;;;;;;8.50;3.60;;;;;;;30.27;41.00;100649.34;5031194;28;20209;-64
2023/08/10 08:40:34;;;;;;;5.82;2.95;;;;;;;30.41;40.12;100652.03;5025002;28;20691;-65
2023/08/10 08:43:03;;;;;;;6.07;3.30;;;;;;;30.29;40.78;100658.94;5038235;28;20269;-65
2023/08/10 08:45:28;;;;;;;7.15;2.90;;;;;;;31.55;36.71;100647.50;5030606;28;20194;-64
2023/08/10 08:47:54;;;;;;;10.25;6.85;;;;;;;29.61;41.88;100640.09;5030820;28;20208;-64
2023/08/10 08:50:19;;;;;;;6.47;4.07;;;;;;;29.31;41.50;100642.16;5022965;28;20677;-65
2023/08/10 08:52:45;;;;;;;5.35;3.50;;;;;;;28.21;46.15;100641.59;5025764;28;20178;-64
2023/08/10 08:55:11;;;;;;;5.53;3.55;;;;;;;30.51;39.77;100639.19;5030570;28;20547;-64
2023/08/10 08:57:37;;;;;;;7.97;3.30;;;;;;;31.35;37.21;100638.78;5030493;28;20206;-64
2023/08/10 09:00:04;;;;;;;9.60;3.72;;;;;;;29.63;38.99;100629.31;5027356;28;20186;-64
2023/08/10 09:02:30;;;;;;;4.10;2.80;;;;;;;32.21;36.31;100631.50;5043615;28;20258;-64
2023/08/10 09:04:59;;;;;;;5.10;2.97;;;;;;;31.16;37.45;100625.31;5030626;28;20660;-64
2023/08/10 09:07:28;;;;;;;7.38;3.10;;;;;;;33.13;34.71;100614.16;5029824;28;20182;-64
2023/08/10 09:09:54;;;;;;;8.13;3.00;;;;;;;33.37;33.53;100619.66;5030772;28;20668;-65
2023/08/10 09:12:33;;;;;;;7.88;3.20;;;;;;;33.77;33.38;100625.34;5034876;28;20221;-64
2023/08/10 09:15:04;;;;;;;6.63;2.80;;;;;;;33.36;32.98;100628.72;5029808;28;20178;-64
2023/08/10 09:17:34;;;;;;;4.00;2.85;;;;;;;32.78;33.96;100617.38;5030707;28;20252;-63
2023/08/10 09:20:00;;;;;;;7.95;2.92;;;;;;;33.57;32.86;100616.78;5030582;28;20223;-63
2023/08/10 09:22:35;;;;;;;3.83;2.67;;;;;;;33.85;32.82;100612.75;5028983;28;20284;-64
2023/08/10 09:25:01;;;;;;;5.13;2.65;;;;;;;34.80;31.59;100612.97;5028129;28;20221;-65
2023/08/10 09:27:28;;;;;;;6.38;3.13;;;;;;;36.39;29.52;100617.19;5030477;28;20214;-65
2023/08/10 09:29:57;;;;;;;5.45;2.45;;;;;;;36.70;28.20;100618.44;5030568;28;20186;-62
2023/08/10 09:32:23;;;;;;;6.50;3.08;;;;;;;36.26;28.81;100613.72;5027362;28;20233;-64
2023/08/10 09:34:48;;;;;;;5.85;2.83;;;;;;;36.29;29.23;100610.56;5025325;28;20194;-65
2023/08/10 09:37:14;;;;;;;4.10;2.85;;;;;;;33.49;33.99;100601.09;5025307;28;20603;-62
2023/08/10 09:39:39;;;;;;;8.50;2.83;;;;;;;34.61;31.92;100598.91;5029407;28;20572;-62
2023/08/10 09:42:05;;;;;;;5.07;3.00;;;;;;;35.22;30.98;100604.81;5036817;28;20322;-63
2023/08/10 09:44:48;;;;;;;5.20;2.45;;;;;;;35.27;30.29;100593.41;5031676;28;20174;-63
2023/08/10 09:47:14;;;;;;;6.65;2.78;;;;;;;34.85;29.79;100597.03;5032504;28;20279;-63
2023/08/10 09:49:54;;;;;;;3.45;2.40;;;;;;;33.86;30.47;100588.50;5021702;28;20725;-63
2023/08/10 09:52:19;;;;;;;5.35;2.33;;;;;;;34.74;30.52;100591.47;5034713;28;20221;-63
2023/08/10 09:54:46;;;;;;;3.25;2.13;;;;;;;35.21;29.15;100585.25;5025794;28;20638;-64
2023/08/10 09:57:12;;;;;;;3.85;2.33;;;;;;;35.52;28.95;100593.94;5034007;28;20202;-66
2023/08/10 09:59:37;;;;;;;4.35;2.42;;;;;;;36.34;28.59;100593.75;5033816;28;20699;-64
2023/08/10 10:02:08;;;;;;;2.85;2.15;;;;;;;36.89;26.00;100597.56;5018391;28;20237;-64
2023/08/10 10:04:34;;;;;;;6.35;2.08;;;;;;;37.12;27.30;100593.03;5033308;28;20193;-65
2023/08/10 10:07:00;;;;;;;5.32;2.80;;;;;;;36.82;26.77;100595.03;5033133;28;20178;-63
2023/08/10 10:09:28;;;;;;;4.22;2.65;;;;;;;37.46;26.07;100599.09;5032427;28;20190;-63
2023/08/10 10:11:56;;;;;;;6.03;2.60;;;;;;;36.90;26.53;100585.78;5036891;28;20232;-65
2023/08/10 10:14:21;;;;;;;5.95;2.58;;;;;;;35.30;27.88;100583.03;5034047;28;20207;-64
2023/08/10 10:16:48;;;;;;;7.38;2.97;;;;;;;35.83;28.31;100581.13;5033289;28;20228;-64
2023/08/10 10:19:14;;;;;;;4.82;2.85;;;;;;;35.63;29.27;100581.56;5033182;28;20557;-64
2023/08/10 10:21:40;;;;;;;3.67;2.40;;;;;;;35.86;28.21;100579.81;5014864;28;20230;-65
2023/08/10 10:24:06;;;;;;;4.20;2.35;;;;;;;34.40;31.41;100582.41;5031721;28;20190;-61
2023/08/10 10:26:31;;;;;;;2.88;2.25;;;;;;;34.40;29.83;100572.53;5020514;28;20190;-63
2023/08/10 10:29:16;;;;;;;3.92;2.80;;;;;;;35.17;29.41;100570.75;5028739;28;20328;-64
2023/08/10 10:31:42;;;;;;;3.08;2.60;;;;;;;32.00;32.82;100569.59;5022818;28;20225;-64
2023/08/10 10:34:14;;;;;;;5.90;2.53;;;;;;;34.45;30.67;100573.69;5026245;28;20670;-61
2023/08/10 10:36:40;;;;;;;4.80;2.30;;;;;;;36.02;29.04;100567.53;5030328;28;20270;-67
2023/08/10 10:39:07;;;;;;;4.82;2.22;;;;;;;34.83;30.88;100575.91;5031371;28;20224;-69
2023/08/10 10:41:36;;;;;;;4.07;2.28;;;;;;;35.81;29.33;100569.03;5032518;28;20260;-63
2023/08/10 10:44:03;;;;;;;3.80;2.55;;;;;;;36.21;27.40;100581.53;5028896;28;20607;-66
2023/08/10 10:46:31;;;;;;;3.63;2.03;;;;;;;34.73;29.55;100570.31;5030325;28;20183;-63
2023/08/10 10:48:57;;;;;;;3.50;2.42;;;;;;;31.53;33.88;100561.00;5030621;28;20752;-64
2023/08/10 10:51:24;;;;;;;6.88;2.30;;;;;;;28.36;38.96;100551.63;5025128;28;20246;-64
2023/08/10 10:53:53;;;;;;;4.68;2.58;;;;;;;27.63;49.10;100549.81;5021695;28;20544;-66
2023/08/10 10:56:18;;;;;;;4.07;2.75;;;;;;;26.08;55.43;100544.81;5028633;28;20661;-66
2023/08/10 10:58:43;;;;;;;5.60;2.95;;;;;;;25.44;59.76;100532.59;5030358;28;20216;-65
2023/08/10 11:01:09;;;;;;;3.50;2.60;;;;;;;25.56;60.48;100540.13;5028599;28;20225;-63
2023/08/10 11:03:34;;;;;;;7.75;3.40;;;;;;;25.46;65.59;100535.06;5037309;28;20205;-63
2023/08/10 11:05:59;;;;;;;3.92;3.13;;;;;;;25.32;64.27;100544.47;5029086;28;20182;-60
2023/08/10 11:08:25;;;;;;;4.10;2.83;;;;;;;24.53;72.16;100533.72;5032216;28;20269;-65
2023/08/10 11:10:51;;;;;;;4.68;2.60;;;;;;;24.46;73.11;100526.50;5023612;28;20807;-64
2023/08/10 11:13:17;;;;;;;10.07;2.70;;;;;;;24.40;71.39;100524.53;5041590;28;20175;-63
2023/08/10 11:15:47;;;;;;;6.07;3.20;;;;;;;24.17;73.04;100524.34;5029660;28;20224;-63